CheckWX is a tool to help pilots better visualize weather data.  It is not intended as a substitute for an official pre-flight weather briefing.

12:19:49 UTC

FAWB METAR
Wonderboom Airport
Pretoria, South Africa
Current

3 hours ago

FAWB 220900Z VRB03KT 9999 SCT035 29/17 Q1025
Observed
Feb-22 @ 09:00 UTC
Wind
  • Variable at 3 KTS
Visibility
10,000+ meters
Flight Rules
VFR
Cloud Levels
  • Scattered at 3,500' AGL
Temperature
29°C / 84°F
Dewpoint
17°C / 63°F
Humidity
48%
Altimeter
30.27" Hg
Pressure
1024.92 hPa
Previous

4 hours ago

FAWB 220800Z 05008KT 9999 SCT035 27/18 Q1025
Observed
Feb-22 @ 08:00 UTC
Wind
  • 050° at 8 KTS
Visibility
10,000+ meters
Flight Rules
VFR
Cloud Levels
  • Scattered at 3,500' AGL
Temperature
27°C / 81°F
Dewpoint
18°C / 64°F
Humidity
58%
Altimeter
30.27" Hg
Pressure
1024.92 hPa
Previous

7 hours ago

FAWB 220500Z 09004KT CAVOK 21/18 Q1025
Observed
Feb-22 @ 05:00 UTC
Wind
  • 090° at 4 KTS
Visibility
10,000+ meters
Flight Rules
VFR
Cloud Levels
  • Clear skies
Temperature
21°C / 70°F
Dewpoint
18°C / 64°F
Humidity
83%
Altimeter
30.27" Hg
Pressure
1024.92 hPa